Terminal Aerodrome Forecast
Issued by NWS Upton, NY

Home | Current Version | Previous Version | Text Only | Print | Product List | Glossary On
Versions: 1 2 3 4 5 6 7 8 9 10 11 12 13 14 15 16 17 18 19 20 21 22 23 24 25 26 27
000
FTUS41 KOKX 061930 AAA
TAFJFK
TAF AMD
KJFK 061930Z 0620/0724 15011KT P6SM FEW030 BKN080 BKN250
     FM070100 16008KT P6SM SCT020 BKN100
     FM070300 16007KT 4SM BR SCT007 BKN015
     FM070600 17006KT 2SM BR BKN007
     FM071200 18009KT 4SM BR SCT008 BKN015 BKN150
     FM071400 18012KT 6SM BR VCSH SCT015 BKN050 PROB30 0714/0718 3SM
      TSRA BKN035CB
     FM071800 18014KT P6SM BKN050=

USA.gov is the U.S. government's official web portal to all federal, state and local government web resources and services.